sensor_id;sensor_type;location;lat;lon;timestamp;pressure;altitude;pressure_sealevel;temperature;humidity
52745;BME280;38637;49.984;20.426;2023-01-26T00:00:59;100087.28;;;2.13;72.42
52745;BME280;38637;49.984;20.426;2023-01-26T00:03:25;100084.31;;;2.08;71.93
52745;BME280;38637;49.984;20.426;2023-01-26T00:05:51;100072.44;;;2.02;72.00
52745;BME280;38637;49.984;20.426;2023-01-26T00:08:16;100073.06;;;2.04;72.66
52745;BME280;38637;49.984;20.426;2023-01-26T00:10:42;100079.78;;;2.09;72.75
52745;BME280;38637;49.984;20.426;2023-01-26T00:13:15;100055.19;;;1.82;72.29
52745;BME280;38637;49.984;20.426;2023-01-26T00:15:41;100075.63;;;1.91;72.85
52745;BME280;38637;49.984;20.426;2023-01-26T00:18:06;100082.50;;;1.94;73.36
52745;BME280;38637;49.984;20.426;2023-01-26T00:20:32;100068.81;;;1.95;74.02
52745;BME280;38637;49.984;20.426;2023-01-26T00:22:57;100060.63;;;2.03;73.74
52745;BME280;38637;49.984;20.426;2023-01-26T00:25:22;100063.13;;;2.05;73.46
52745;BME280;38637;49.984;20.426;2023-01-26T00:27:48;100066.47;;;2.07;73.57
52745;BME280;38637;49.984;20.426;2023-01-26T00:30:13;100054.88;;;2.06;73.06
52745;BME280;38637;49.984;20.426;2023-01-26T00:32:39;100035.88;;;1.93;73.68
52745;BME280;38637;49.984;20.426;2023-01-26T00:35:05;100030.38;;;1.87;74.38
52745;BME280;38637;49.984;20.426;2023-01-26T00:37:30;100058.00;;;2.10;73.77
52745;BME280;38637;49.984;20.426;2023-01-26T00:39:56;100049.56;;;2.13;73.19
52745;BME280;38637;49.984;20.426;2023-01-26T00:42:21;100047.31;;;2.17;73.29
52745;BME280;38637;49.984;20.426;2023-01-26T00:44:48;100048.78;;;2.19;73.30
52745;BME280;38637;49.984;20.426;2023-01-26T00:47:14;100046.09;;;2.19;73.60
52745;BME280;38637;49.984;20.426;2023-01-26T00:49:39;100043.03;;;2.22;73.13
52745;BME280;38637;49.984;20.426;2023-01-26T00:52:05;100040.72;;;2.19;72.74
52745;BME280;38637;49.984;20.426;2023-01-26T00:54:31;100023.66;;;2.12;72.50
52745;BME280;38637;49.984;20.426;2023-01-26T00:56:56;100022.94;;;2.03;72.64
52745;BME280;38637;49.984;20.426;2023-01-26T00:59:22;100026.44;;;2.04;72.92
52745;BME280;38637;49.984;20.426;2023-01-26T01:01:47;100023.97;;;2.02;73.12
52745;BME280;38637;49.984;20.426;2023-01-26T01:04:14;100010.31;;;1.89;73.21
52745;BME280;38637;49.984;20.426;2023-01-26T01:06:39;100026.56;;;1.96;73.36
52745;BME280;38637;49.984;20.426;2023-01-26T01:09:05;100024.09;;;1.79;73.07
52745;BME280;38637;49.984;20.426;2023-01-26T01:11:30;100022.06;;;1.81;73.52
52745;BME280;38637;49.984;20.426;2023-01-26T01:13:56;100017.28;;;1.83;73.59
52745;BME280;38637;49.984;20.426;2023-01-26T01:16:21;100016.75;;;1.88;73.80
52745;BME280;38637;49.984;20.426;2023-01-26T01:18:46;100023.47;;;1.99;73.63
52745;BME280;38637;49.984;20.426;2023-01-26T01:21:13;100010.66;;;2.01;73.52
52745;BME280;38637;49.984;20.426;2023-01-26T01:23:39;100011.34;;;1.88;73.28
52745;BME280;38637;49.984;20.426;2023-01-26T01:26:05;100008.94;;;1.93;73.43
52745;BME280;38637;49.984;20.426;2023-01-26T01:28:31;100010.66;;;2.01;72.96
52745;BME280;38637;49.984;20.426;2023-01-26T01:30:57;100006.19;;;2.08;73.22
52745;BME280;38637;49.984;20.426;2023-01-26T01:33:22;100000.56;;;2.03;73.14
52745;BME280;38637;49.984;20.426;2023-01-26T01:35:58;99995.88;;;2.12;72.84
52745;BME280;38637;49.984;20.426;2023-01-26T01:38:24;99979.19;;;2.01;72.81
52745;BME280;38637;49.984;20.426;2023-01-26T01:40:50;99977.97;;;2.04;73.09
52745;BME280;38637;49.984;20.426;2023-01-26T01:43:15;99994.41;;;2.09;72.17
52745;BME280;38637;49.984;20.426;2023-01-26T01:45:48;99975.16;;;1.91;72.16
52745;BME280;38637;49.984;20.426;2023-01-26T01:50:51;99983.72;;;1.79;72.79
52745;BME280;38637;49.984;20.426;2023-01-26T01:53:20;99985.63;;;1.86;72.95
52745;BME280;38637;49.984;20.426;2023-01-26T01:55:51;99974.22;;;1.83;73.02
52745;BME280;38637;49.984;20.426;2023-01-26T01:58:18;99976.25;;;1.96;73.04
52745;BME280;38637;49.984;20.426;2023-01-26T02:00:44;99979.38;;;2.00;72.72
52745;BME280;38637;49.984;20.426;2023-01-26T02:03:09;99980.38;;;1.99;72.26
52745;BME280;38637;49.984;20.426;2023-01-26T02:08:33;99973.69;;;1.73;71.88
52745;BME280;38637;49.984;20.426;2023-01-26T02:11:04;99974.44;;;1.67;72.47
52745;BME280;38637;49.984;20.426;2023-01-26T02:13:30;99963.97;;;1.57;72.77
52745;BME280;38637;49.984;20.426;2023-01-26T02:15:58;99978.25;;;1.73;73.44
52745;BME280;38637;49.984;20.426;2023-01-26T02:18:23;99974.78;;;1.79;73.52
52745;BME280;38637;49.984;20.426;2023-01-26T02:20:51;99959.31;;;1.81;73.15
52745;BME280;38637;49.984;20.426;2023-01-26T02:23:27;99936.66;;;1.75;73.98
52745;BME280;38637;49.984;20.426;2023-01-26T02:28:31;99951.84;;;1.83;73.71
52745;BME280;38637;49.984;20.426;2023-01-26T02:30:57;99959.09;;;1.82;74.19
52745;BME280;38637;49.984;20.426;2023-01-26T02:33:26;99947.66;;;1.80;74.15
52745;BME280;38637;49.984;20.426;2023-01-26T02:35:52;99951.00;;;1.82;73.92
52745;BME280;38637;49.984;20.426;2023-01-26T02:38:19;99949.59;;;1.87;73.85
52745;BME280;38637;49.984;20.426;2023-01-26T02:40:57;99937.75;;;1.81;74.30
52745;BME280;38637;49.984;20.426;2023-01-26T02:43:25;99956.53;;;1.96;73.97
52745;BME280;38637;49.984;20.426;2023-01-26T02:45:52;99954.88;;;1.95;74.40
52745;BME280;38637;49.984;20.426;2023-01-26T02:48:18;99937.06;;;1.94;74.40
52745;BME280;38637;49.984;20.426;2023-01-26T02:51:03;99924.97;;;1.90;74.18
52745;BME280;38637;49.984;20.426;2023-01-26T02:53:29;99923.78;;;1.92;74.40
52745;BME280;38637;49.984;20.426;2023-01-26T02:55:54;99934.22;;;2.02;74.56
52745;BME280;38637;49.984;20.426;2023-01-26T02:58:20;99932.38;;;2.02;74.69
52745;BME280;38637;49.984;20.426;2023-01-26T03:00:45;99928.38;;;1.98;74.97
52745;BME280;38637;49.984;20.426;2023-01-26T03:03:14;99936.28;;;2.00;75.21
52745;BME280;38637;49.984;20.426;2023-01-26T03:05:41;99944.59;;;2.05;74.79
52745;BME280;38637;49.984;20.426;2023-01-26T03:08:06;99927.81;;;2.03;73.44
52745;BME280;38637;49.984;20.426;2023-01-26T03:10:32;99933.84;;;2.05;72.77
52745;BME280;38637;49.984;20.426;2023-01-26T03:12:58;99929.88;;;2.01;73.07
52745;BME280;38637;49.984;20.426;2023-01-26T03:15:24;99942.50;;;2.00;73.33
52745;BME280;38637;49.984;20.426;2023-01-26T03:18:10;99911.66;;;1.81;74.02
52745;BME280;38637;49.984;20.426;2023-01-26T03:20:56;99945.31;;;1.92;74.13
52745;BME280;38637;49.984;20.426;2023-01-26T03:23:40;99917.28;;;1.87;73.84
52745;BME280;38637;49.984;20.426;2023-01-26T03:26:26;99936.75;;;2.03;73.71
52745;BME280;38637;49.984;20.426;2023-01-26T03:29:09;99939.16;;;1.77;73.13
52745;BME280;38637;49.984;20.426;2023-01-26T03:31:35;99924.69;;;1.78;72.48
52745;BME280;38637;49.984;20.426;2023-01-26T03:34:00;99921.09;;;1.56;72.61
52745;BME280;38637;49.984;20.426;2023-01-26T03:36:25;99902.78;;;1.45;73.49
52745;BME280;38637;49.984;20.426;2023-01-26T03:38:50;99930.47;;;1.60;73.69
52745;BME280;38637;49.984;20.426;2023-01-26T03:41:16;99925.09;;;1.60;73.61
52745;BME280;38637;49.984;20.426;2023-01-26T03:44:00;99917.72;;;1.47;74.58
52745;BME280;38637;49.984;20.426;2023-01-26T03:46:43;99899.25;;;1.44;73.73
52745;BME280;38637;49.984;20.426;2023-01-26T03:49:27;99908.56;;;1.63;74.09
52745;BME280;38637;49.984;20.426;2023-01-26T03:52:11;99903.19;;;1.63;74.20
52745;BME280;38637;49.984;20.426;2023-01-26T03:54:55;99904.66;;;1.66;74.10
52745;BME280;38637;49.984;20.426;2023-01-26T03:57:39;99871.75;;;1.49;74.64
52745;BME280;38637;49.984;20.426;2023-01-26T04:00:05;99899.53;;;1.71;74.78
52745;BME280;38637;49.984;20.426;2023-01-26T04:02:30;99884.09;;;1.43;74.54
52745;BME280;38637;49.984;20.426;2023-01-26T04:05:15;99880.97;;;1.40;74.47
52745;BME280;38637;49.984;20.426;2023-01-26T04:08:03;99890.34;;;1.65;74.45
52745;BME280;38637;49.984;20.426;2023-01-26T04:10:51;99878.56;;;1.66;74.43
52745;BME280;38637;49.984;20.426;2023-01-26T04:13:22;99884.69;;;1.75;74.44
52745;BME280;38637;49.984;20.426;2023-01-26T04:16:08;99886.13;;;1.77;74.15
52745;BME280;38637;49.984;20.426;2023-01-26T04:18:53;99883.25;;;1.79;74.25
52745;BME280;38637;49.984;20.426;2023-01-26T04:21:37;99849.97;;;1.65;74.04
52745;BME280;38637;49.984;20.426;2023-01-26T04:24:04;99882.28;;;1.87;73.76
52745;BME280;38637;49.984;20.426;2023-01-26T04:26:39;99890.19;;;1.88;73.85
52745;BME280;38637;49.984;20.426;2023-01-26T04:29:07;99893.69;;;1.89;73.39
52745;BME280;38637;49.984;20.426;2023-01-26T04:31:33;99888.97;;;1.91;73.15
52745;BME280;38637;49.984;20.426;2023-01-26T04:33:59;99896.06;;;1.77;68.40
52745;BME280;38637;49.984;20.426;2023-01-26T04:36:25;99872.97;;;1.68;70.00
52745;BME280;38637;49.984;20.426;2023-01-26T04:38:50;99875.69;;;1.68;70.24
52745;BME280;38637;49.984;20.426;2023-01-26T04:41:16;99866.38;;;1.70;70.46
52745;BME280;38637;49.984;20.426;2023-01-26T04:43:41;99862.59;;;1.65;68.94
52745;BME280;38637;49.984;20.426;2023-01-26T04:46:07;99875.69;;;1.68;69.78
52745;BME280;38637;49.984;20.426;2023-01-26T04:48:33;99867.44;;;1.69;70.02
52745;BME280;38637;49.984;20.426;2023-01-26T04:51:01;99866.44;;;1.77;70.46
52745;BME280;38637;49.984;20.426;2023-01-26T04:53:27;99863.97;;;1.75;68.67
52745;BME280;38637;49.984;20.426;2023-01-26T04:55:52;99837.75;;;1.63;69.57
52745;BME280;38637;49.984;20.426;2023-01-26T04:58:18;99856.34;;;1.79;70.17
52745;BME280;38637;49.984;20.426;2023-01-26T05:00:44;99852.81;;;1.78;69.89
52745;BME280;38637;49.984;20.426;2023-01-26T05:03:13;99846.78;;;1.76;69.89
52745;BME280;38637;49.984;20.426;2023-01-26T05:05:39;99833.66;;;1.67;69.75
52745;BME280;38637;49.984;20.426;2023-01-26T05:08:05;99853.19;;;1.75;69.07
52745;BME280;38637;49.984;20.426;2023-01-26T05:10:31;99843.38;;;1.68;68.54
52745;BME280;38637;49.984;20.426;2023-01-26T05:12:56;99852.09;;;1.70;67.62
52745;BME280;38637;49.984;20.426;2023-01-26T05:15:22;99858.13;;;1.72;68.51
52745;BME280;38637;49.984;20.426;2023-01-26T05:17:47;99857.75;;;1.75;68.78
52745;BME280;38637;49.984;20.426;2023-01-26T05:20:13;99839.97;;;1.59;68.26
52745;BME280;38637;49.984;20.426;2023-01-26T05:22:38;99856.44;;;1.71;67.38
52745;BME280;38637;49.984;20.426;2023-01-26T05:25:04;99867.44;;;1.69;67.39
52745;BME280;38637;49.984;20.426;2023-01-26T05:27:29;99838.31;;;1.58;68.24
52745;BME280;38637;49.984;20.426;2023-01-26T05:29:55;99853.59;;;1.72;68.40
52745;BME280;38637;49.984;20.426;2023-01-26T05:32:27;99861.34;;;1.82;68.93
52745;BME280;38637;49.984;20.426;2023-01-26T05:34:53;99840.50;;;1.69;68.34
52745;BME280;38637;49.984;20.426;2023-01-26T05:37:18;99853.44;;;1.80;69.08
52745;BME280;38637;49.984;20.426;2023-01-26T05:39:43;99860.88;;;1.78;69.14
52745;BME280;38637;49.984;20.426;2023-01-26T05:42:12;99857.94;;;1.73;67.78
52745;BME280;38637;49.984;20.426;2023-01-26T05:44:38;99845.72;;;1.56;67.51
52745;BME280;38637;49.984;20.426;2023-01-26T05:47:04;99841.13;;;1.50;67.97
52745;BME280;38637;49.984;20.426;2023-01-26T05:49:29;99852.03;;;1.63;67.70
52745;BME280;38637;49.984;20.426;2023-01-26T05:51:55;99823.97;;;1.51;67.88
52745;BME280;38637;49.984;20.426;2023-01-26T05:54:21;99852.28;;;1.68;67.22
52745;BME280;38637;49.984;20.426;2023-01-26T05:56:46;99863.91;;;1.69;68.03
52745;BME280;38637;49.984;20.426;2023-01-26T05:59:12;99851.72;;;1.73;68.53
52745;BME280;38637;49.984;20.426;2023-01-26T06:01:37;99854.03;;;1.76;68.69
52745;BME280;38637;49.984;20.426;2023-01-26T06:04:04;99843.91;;;1.78;69.20
52745;BME280;38637;49.984;20.426;2023-01-26T06:06:29;99835.75;;;1.71;68.85
52745;BME280;38637;49.984;20.426;2023-01-26T06:08:55;99851.78;;;1.79;69.27
52745;BME280;38637;49.984;20.426;2023-01-26T06:11:20;99852.44;;;1.81;69.41
52745;BME280;38637;49.984;20.426;2023-01-26T06:13:45;99844.34;;;1.81;69.19
52745;BME280;38637;49.984;20.426;2023-01-26T06:16:12;99849.91;;;1.80;68.88
52745;BME280;38637;49.984;20.426;2023-01-26T06:18:37;99852.81;;;1.78;69.05
52745;BME280;38637;49.984;20.426;2023-01-26T06:21:03;99855.69;;;1.77;69.48
52745;BME280;38637;49.984;20.426;2023-01-26T06:23:28;99857.53;;;1.76;68.24
52745;BME280;38637;49.984;20.426;2023-01-26T06:25:57;99835.94;;;1.70;68.93
52745;BME280;38637;49.984;20.426;2023-01-26T06:28:23;99851.97;;;1.78;69.04
52745;BME280;38637;49.984;20.426;2023-01-26T06:30:48;99846.50;;;1.71;68.99
52745;BME280;38637;49.984;20.426;2023-01-26T06:33:13;99846.78;;;1.76;68.87
52745;BME280;38637;49.984;20.426;2023-01-26T06:35:39;99856.50;;;1.77;68.70
52745;BME280;38637;49.984;20.426;2023-01-26T06:38:04;99849.69;;;1.75;68.84
52745;BME280;38637;49.984;20.426;2023-01-26T06:40:29;99856.13;;;1.80;68.54
52745;BME280;38637;49.984;20.426;2023-01-26T06:42:55;99854.97;;;1.68;66.46
52745;BME280;38637;49.984;20.426;2023-01-26T06:45:20;99856.75;;;1.40;66.00
52745;BME280;38637;49.984;20.426;2023-01-26T06:47:46;99849.31;;;1.20;67.11
52745;BME280;38637;49.984;20.426;2023-01-26T06:50:17;99852.88;;;1.27;67.50
52745;BME280;38637;49.984;20.426;2023-01-26T06:52:46;99852.66;;;1.07;67.95
52745;BME280;38637;49.984;20.426;2023-01-26T06:55:21;99841.28;;;0.90;68.61
52745;BME280;38637;49.984;20.426;2023-01-26T06:57:48;99842.00;;;0.99;68.11
52745;BME280;38637;49.984;20.426;2023-01-26T07:00:13;99851.53;;;1.17;69.09
52745;BME280;38637;49.984;20.426;2023-01-26T07:02:39;99854.31;;;1.23;69.63
52745;BME280;38637;49.984;20.426;2023-01-26T07:05:05;99847.72;;;1.26;69.28
52745;BME280;38637;49.984;20.426;2023-01-26T07:07:30;99844.34;;;1.38;68.82
52745;BME280;38637;49.984;20.426;2023-01-26T07:09:55;99844.50;;;1.37;68.23
52745;BME280;38637;49.984;20.426;2023-01-26T07:12:21;99837.91;;;1.40;68.43
52745;BME280;38637;49.984;20.426;2023-01-26T07:14:46;99842.53;;;1.46;68.49
52745;BME280;38637;49.984;20.426;2023-01-26T07:17:12;99838.25;;;1.51;68.56
52745;BME280;38637;49.984;20.426;2023-01-26T07:19:37;99843.97;;;1.63;68.49
52745;BME280;38637;49.984;20.426;2023-01-26T07:22:02;99836.91;;;1.62;68.09
52745;BME280;38637;49.984;20.426;2023-01-26T07:24:28;99838.75;;;1.61;68.38
52745;BME280;38637;49.984;20.426;2023-01-26T07:26:54;99836.00;;;1.55;68.11
52745;BME280;38637;49.984;20.426;2023-01-26T07:29:20;99834.91;;;1.49;68.33
52745;BME280;38637;49.984;20.426;2023-01-26T07:31:45;99819.78;;;1.48;68.54
52745;BME280;38637;49.984;20.426;2023-01-26T07:34:11;99837.88;;;1.54;68.60
52745;BME280;38637;49.984;20.426;2023-01-26T07:36:36;99833.59;;;1.60;68.84
52745;BME280;38637;49.984;20.426;2023-01-26T07:39:02;99826.22;;;1.69;67.27
52745;BME280;38637;49.984;20.426;2023-01-26T07:41:27;99827.44;;;1.66;66.98
52745;BME280;38637;49.984;20.426;2023-01-26T07:43:52;99820.13;;;1.60;67.20
52745;BME280;38637;49.984;20.426;2023-01-26T07:46:18;99823.69;;;1.67;67.59
52745;BME280;38637;49.984;20.426;2023-01-26T07:48:43;99816.00;;;1.64;67.95
52745;BME280;38637;49.984;20.426;2023-01-26T07:51:08;99831.06;;;1.80;68.50
52745;BME280;38637;49.984;20.426;2023-01-26T07:53:36;99835.63;;;1.79;68.06
52745;BME280;38637;49.984;20.426;2023-01-26T07:56:07;99839.19;;;1.87;68.34
52745;BME280;38637;49.984;20.426;2023-01-26T07:58:33;99840.09;;;1.94;68.20
52745;BME280;38637;49.984;20.426;2023-01-26T08:01:07;99834.34;;;1.97;67.89
52745;BME280;38637;49.984;20.426;2023-01-26T08:03:33;99836.81;;;1.98;67.30
52745;BME280;38637;49.984;20.426;2023-01-26T08:05:58;99827.25;;;1.96;66.32
52745;BME280;38637;49.984;20.426;2023-01-26T08:08:24;99823.13;;;1.93;66.01
52745;BME280;38637;49.984;20.426;2023-01-26T08:10:50;99811.00;;;1.82;65.74
52745;BME280;38637;49.984;20.426;2023-01-26T08:13:15;99817.59;;;1.80;66.45
52745;BME280;38637;49.984;20.426;2023-01-26T08:15:40;99828.50;;;1.93;66.15
52745;BME280;38637;49.984;20.426;2023-01-26T08:18:05;99828.63;;;1.85;65.93
52745;BME280;38637;49.984;20.426;2023-01-26T08:20:31;99821.78;;;1.82;66.71
52745;BME280;38637;49.984;20.426;2023-01-26T08:22:56;99822.97;;;1.80;66.76
52745;BME280;38637;49.984;20.426;2023-01-26T08:25:21;99810.91;;;1.48;67.15
52745;BME280;38637;49.984;20.426;2023-01-26T08:27:47;99830.44;;;1.56;67.92
52745;BME280;38637;49.984;20.426;2023-01-26T08:30:12;99834.28;;;1.47;68.13
52745;BME280;38637;49.984;20.426;2023-01-26T08:32:39;99830.19;;;1.51;68.43
52745;BME280;38637;49.984;20.426;2023-01-26T08:35:04;99817.94;;;1.49;68.23
52745;BME280;38637;49.984;20.426;2023-01-26T08:37:30;99825.44;;;1.53;68.64
52745;BME280;38637;49.984;20.426;2023-01-26T08:39:55;99823.53;;;1.69;68.43
52745;BME280;38637;49.984;20.426;2023-01-26T08:42:20;99802.94;;;1.61;67.49
52745;BME280;38637;49.984;20.426;2023-01-26T08:44:45;99827.09;;;1.76;67.99
52745;BME280;38637;49.984;20.426;2023-01-26T08:47:11;99827.94;;;1.76;68.32
52745;BME280;38637;49.984;20.426;2023-01-26T08:49:36;99830.34;;;1.71;68.20
52745;BME280;38637;49.984;20.426;2023-01-26T08:52:02;99818.63;;;1.36;68.12
52745;BME280;38637;49.984;20.426;2023-01-26T08:54:27;99810.84;;;1.41;68.99
52745;BME280;38637;49.984;20.426;2023-01-26T08:56:53;99828.59;;;1.57;68.92
52745;BME280;38637;49.984;20.426;2023-01-26T08:59:19;99809.59;;;1.44;68.19
52745;BME280;38637;49.984;20.426;2023-01-26T09:01:44;99824.41;;;1.54;68.82
52745;BME280;38637;49.984;20.426;2023-01-26T09:04:10;99824.75;;;1.66;69.02
52745;BME280;38637;49.984;20.426;2023-01-26T09:06:35;99828.31;;;1.73;68.70
52745;BME280;38637;49.984;20.426;2023-01-26T09:09:00;99816.00;;;1.64;68.65
52745;BME280;38637;49.984;20.426;2023-01-26T09:11:25;99837.50;;;1.79;68.23
52745;BME280;38637;49.984;20.426;2023-01-26T09:13:51;99826.44;;;1.74;68.16
52745;BME280;38637;49.984;20.426;2023-01-26T09:16:23;99817.66;;;1.65;68.10
52745;BME280;38637;49.984;20.426;2023-01-26T09:18:49;99828.25;;;1.67;67.84
52745;BME280;38637;49.984;20.426;2023-01-26T09:21:15;99815.75;;;1.59;68.05
52745;BME280;38637;49.984;20.426;2023-01-26T09:23:40;99812.44;;;1.57;68.15
52745;BME280;38637;49.984;20.426;2023-01-26T09:26:06;99831.13;;;1.65;68.50
52745;BME280;38637;49.984;20.426;2023-01-26T09:28:31;99821.78;;;1.61;68.05
52745;BME280;38637;49.984;20.426;2023-01-26T09:30:56;99829.84;;;1.61;68.47
52745;BME280;38637;49.984;20.426;2023-01-26T09:33:22;99806.28;;;1.42;67.88
52745;BME280;38637;49.984;20.426;2023-01-26T09:35:48;99813.97;;;1.45;68.10
52745;BME280;38637;49.984;20.426;2023-01-26T09:38:13;99821.00;;;1.46;68.80
52745;BME280;38637;49.984;20.426;2023-01-26T09:46:23;99810.69;;;1.49;68.54
52745;BME280;38637;49.984;20.426;2023-01-26T09:48:58;99806.72;;;1.45;68.67
52745;BME280;38637;49.984;20.426;2023-01-26T09:51:32;99797.81;;;1.45;69.01
52745;BME280;38637;49.984;20.426;2023-01-26T09:56:36;99790.88;;;1.14;69.07
52745;BME280;38637;49.984;20.426;2023-01-26T10:04:39;99793.97;;;1.32;68.54
52745;BME280;38637;49.984;20.426;2023-01-26T10:07:09;99788.84;;;1.37;69.12
52745;BME280;38637;49.984;20.426;2023-01-26T10:09:37;99797.69;;;1.53;68.80
52745;BME280;38637;49.984;20.426;2023-01-26T10:12:06;99779.69;;;1.53;68.19
52745;BME280;38637;49.984;20.426;2023-01-26T10:14:37;99775.84;;;1.63;67.90
52745;BME280;38637;49.984;20.426;2023-01-26T10:17:06;99779.41;;;1.70;68.21
52745;BME280;38637;49.984;20.426;2023-01-26T10:19:41;99768.22;;;1.66;68.14
52745;BME280;38637;49.984;20.426;2023-01-26T10:22:20;99776.22;;;1.81;67.82
52745;BME280;38637;49.984;20.426;2023-01-26T10:24:48;99753.81;;;1.80;67.59
52745;BME280;38637;49.984;20.426;2023-01-26T10:27:14;99767.50;;;1.57;67.89
52745;BME280;38637;49.984;20.426;2023-01-26T10:29:40;99765.47;;;1.38;69.06
52745;BME280;38637;49.984;20.426;2023-01-26T10:32:12;99736.31;;;1.20;69.15
52745;BME280;38637;49.984;20.426;2023-01-26T10:34:38;99763.72;;;1.30;69.57
52745;BME280;38637;49.984;20.426;2023-01-26T10:37:28;99760.88;;;1.32;69.30
52745;BME280;38637;49.984;20.426;2023-01-26T10:40:04;99759.13;;;1.46;68.91
52745;BME280;38637;49.984;20.426;2023-01-26T10:42:34;99759.44;;;1.57;68.67
52745;BME280;38637;49.984;20.426;2023-01-26T10:45:03;99754.59;;;1.74;68.26
52745;BME280;38637;49.984;20.426;2023-01-26T10:47:29;99751.88;;;1.46;67.47
52745;BME280;38637;49.984;20.426;2023-01-26T10:50:19;99742.84;;;1.54;67.30
52745;BME280;38637;49.984;20.426;2023-01-26T10:52:56;99720.75;;;1.37;67.92
52745;BME280;38637;49.984;20.426;2023-01-26T10:55:22;99726.13;;;1.37;67.76
52745;BME280;38637;49.984;20.426;2023-01-26T10:57:48;99740.38;;;1.59;67.63
52745;BME280;38637;49.984;20.426;2023-01-26T11:00:32;99741.16;;;1.53;67.84
52745;BME280;38637;49.984;20.426;2023-01-26T11:03:16;99731.31;;;1.60;67.71
52745;BME280;38637;49.984;20.426;2023-01-26T11:05:42;99737.03;;;1.78;67.69
52745;BME280;38637;49.984;20.426;2023-01-26T11:08:31;99728.63;;;1.88;67.82
52745;BME280;38637;49.984;20.426;2023-01-26T11:11:01;99734.03;;;1.95;67.54
52745;BME280;38637;49.984;20.426;2023-01-26T11:13:27;99715.19;;;1.95;66.72
52745;BME280;38637;49.984;20.426;2023-01-26T11:16:09;99729.31;;;1.69;65.98
52745;BME280;38637;49.984;20.426;2023-01-26T11:24:33;99717.06;;;1.66;66.99
52745;BME280;38637;49.984;20.426;2023-01-26T11:30:00;99718.47;;;1.62;67.78
52745;BME280;38637;49.984;20.426;2023-01-26T11:32:49;99715.63;;;1.70;67.86
52745;BME280;38637;49.984;20.426;2023-01-26T11:35:30;99708.22;;;1.72;68.08
52745;BME280;38637;49.984;20.426;2023-01-26T11:38:11;99700.31;;;1.71;67.45
52745;BME280;38637;49.984;20.426;2023-01-26T11:40:50;99713.09;;;1.62;68.03
52745;BME280;38637;49.984;20.426;2023-01-26T11:45:58;99691.66;;;1.75;67.24
52745;BME280;38637;49.984;20.426;2023-01-26T11:48:30;99707.81;;;1.75;67.42
52745;BME280;38637;49.984;20.426;2023-01-26T11:51:11;99707.38;;;1.72;67.50
52745;BME280;38637;49.984;20.426;2023-01-26T11:53:49;99686.91;;;1.77;67.78
52745;BME280;38637;49.984;20.426;2023-01-26T11:59:19;99686.88;;;2.05;67.86
52745;BME280;38637;49.984;20.426;2023-01-26T12:02:00;99679.00;;;2.04;67.91
52745;BME280;38637;49.984;20.426;2023-01-26T12:04:27;99667.75;;;1.94;67.84
52745;BME280;38637;49.984;20.426;2023-01-26T12:07:04;99670.19;;;1.89;67.84
52745;BME280;38637;49.984;20.426;2023-01-26T12:09:57;99667.19;;;1.70;67.67
52745;BME280;38637;49.984;20.426;2023-01-26T12:14:58;99659.50;;;1.39;68.94
52745;BME280;38637;49.984;20.426;2023-01-26T12:22:48;99640.31;;;1.77;68.07
52745;BME280;38637;49.984;20.426;2023-01-26T12:25:39;99655.28;;;1.86;67.12
52745;BME280;38637;49.984;20.426;2023-01-26T12:28:04;99643.91;;;1.91;67.10
52745;BME280;38637;49.984;20.426;2023-01-26T12:33:19;99645.78;;;1.90;67.84
52745;BME280;38637;49.984;20.426;2023-01-26T12:38:21;99640.50;;;1.75;68.26
52745;BME280;38637;49.984;20.426;2023-01-26T12:40:53;99648.38;;;1.77;68.82
52745;BME280;38637;49.984;20.426;2023-01-26T12:43:47;99642.28;;;1.61;68.92
52745;BME280;38637;49.984;20.426;2023-01-26T12:46:17;99643.59;;;1.72;69.07
52745;BME280;38637;49.984;20.426;2023-01-26T12:48:47;99639.72;;;1.81;68.25
52745;BME280;38637;49.984;20.426;2023-01-26T12:51:24;99596.63;;;1.47;67.52
52745;BME280;38637;49.984;20.426;2023-01-26T12:54:05;99639.44;;;1.70;68.08
52745;BME280;38637;49.984;20.426;2023-01-26T12:56:47;99640.50;;;1.75;67.79
52745;BME280;38637;49.984;20.426;2023-01-26T12:59:18;99638.22;;;1.72;67.84
52745;BME280;38637;49.984;20.426;2023-01-26T13:01:45;99624.38;;;1.75;67.93
52745;BME280;38637;49.984;20.426;2023-01-26T13:04:13;99641.59;;;1.81;67.97
52745;BME280;38637;49.984;20.426;2023-01-26T13:06:40;99636.31;;;1.66;68.12
52745;BME280;38637;49.984;20.426;2023-01-26T13:09:23;99622.91;;;1.45;68.82
52745;BME280;38637;49.984;20.426;2023-01-26T13:14:35;99626.22;;;1.47;68.87
52745;BME280;38637;49.984;20.426;2023-01-26T13:27:40;99616.69;;;1.72;68.50
52745;BME280;38637;49.984;20.426;2023-01-26T13:32:49;99631.88;;;1.87;67.42
52745;BME280;38637;49.984;20.426;2023-01-26T13:35:18;99625.03;;;1.84;67.36
52745;BME280;38637;49.984;20.426;2023-01-26T13:38:13;99625.91;;;1.91;67.78
52745;BME280;38637;49.984;20.426;2023-01-26T13:40:44;99632.25;;;1.83;68.33
52745;BME280;38637;49.984;20.426;2023-01-26T13:43:16;99631.66;;;1.81;68.29
52745;BME280;38637;49.984;20.426;2023-01-26T13:48:49;99625.03;;;1.84;68.60
52745;BME280;38637;49.984;20.426;2023-01-26T13:51:17;99625.44;;;1.81;67.96
52745;BME280;38637;49.984;20.426;2023-01-26T13:53:49;99629.75;;;1.75;68.47
52745;BME280;38637;49.984;20.426;2023-01-26T13:58:49;99641.47;;;1.33;70.43
52745;BME280;38637;49.984;20.426;2023-01-26T14:01:14;99639.50;;;1.20;70.87
52745;BME280;38637;49.984;20.426;2023-01-26T14:03:41;99623.53;;;1.19;70.86
52745;BME280;38637;49.984;20.426;2023-01-26T14:06:10;99639.53;;;1.27;71.05
52745;BME280;38637;49.984;20.426;2023-01-26T14:08:38;99631.25;;;1.28;71.22
52745;BME280;38637;49.984;20.426;2023-01-26T14:11:14;99628.06;;;1.40;70.78
52745;BME280;38637;49.984;20.426;2023-01-26T14:13:40;99619.63;;;1.21;71.13
52745;BME280;38637;49.984;20.426;2023-01-26T14:16:06;99637.31;;;1.09;71.97
52745;BME280;38637;49.984;20.426;2023-01-26T14:18:43;99632.44;;;1.19;72.14
52745;BME280;38637;49.984;20.426;2023-01-26T14:21:22;99627.94;;;0.98;72.29